Time;durP1;ratioP1;P1;durP2;ratioP2;P2;SDS_P1;SDS_P2;PMS_P1;PMS_P2;Temp;Humidity;BMP_temperature;BMP_pressure;BME280_temperature;BME280_humidity;BME280_pressure;Samples;Min_cycle;Max_cycle;Signal;HPM_P1;HPM_P2
2022/02/12 00:01:41;;;;;;;4.85;1.17;;;;;;;2.90;100.00;99566.31;4966011;28;20623;-57
2022/02/12 00:04:26;;;;;;;3.47;1.00;;;;;;;2.79;100.00;99568.88;4982611;28;20048;-58
2022/02/12 00:07:10;;;;;;;5.68;0.90;;;;;;;2.63;100.00;99559.16;4983934;28;20068;-58
2022/02/12 00:09:55;;;;;;;5.55;1.20;;;;;;;2.82;100.00;99579.38;4980874;28;20112;-59
2022/02/12 00:12:40;;;;;;;5.18;1.35;;;;;;;2.51;100.00;99535.50;4967982;28;20056;-62
2022/02/12 00:15:25;;;;;;;3.40;1.17;;;;;;;2.72;100.00;99574.91;4967151;28;20053;-61
2022/02/12 00:18:11;;;;;;;3.30;1.10;;;;;;;2.75;100.00;99579.28;4981892;28;20092;-61
2022/02/12 00:20:57;;;;;;;3.85;1.20;;;;;;;2.74;100.00;99582.78;4969076;28;20070;-59
2022/02/12 00:23:42;;;;;;;3.85;1.38;;;;;;;2.75;100.00;99564.47;4978996;28;20205;-59
2022/02/12 00:26:27;;;;;;;5.75;1.38;;;;;;;2.74;100.00;99574.94;4981243;28;20065;-59
2022/02/12 00:29:12;;;;;;;3.85;1.20;;;;;;;2.76;100.00;99579.31;4978820;28;20049;-59
2022/02/12 00:31:58;;;;;;;5.38;1.35;;;;;;;2.68;100.00;99559.16;4970642;28;20186;-59
2022/02/12 00:34:42;;;;;;;2.53;1.05;;;;;;;2.47;100.00;99541.59;4981523;28;20049;-59
2022/02/12 00:37:28;;;;;;;3.45;1.10;;;;;;;2.56;100.00;99559.97;4951822;28;20371;-59
2022/02/12 00:40:13;;;;;;;5.97;1.15;;;;;;;2.53;100.00;99556.47;4977770;28;20525;-59
2022/02/12 00:42:58;;;;;;;3.60;1.10;;;;;;;2.53;100.00;99569.53;4982770;28;20471;-59
2022/02/12 00:45:43;;;;;;;5.60;1.30;;;;;;;2.43;100.00;99573.81;4984057;28;20057;-61
2022/02/12 00:48:29;;;;;;;5.68;0.90;;;;;;;2.51;100.00;99573.88;4967616;28;20149;-59
2022/02/12 00:51:13;;;;;;;5.78;1.00;;;;;;;2.55;100.00;99581.78;4983518;28;20061;-63
2022/02/12 00:53:58;;;;;;;;;;;;;;;2.54;100.00;99577.38;4948377;28;20053;-60
2022/02/12 00:56:43;;;;;;;3.47;0.90;;;;;;;2.41;100.00;99565.06;4970571;28;20460;-59
2022/02/12 00:59:28;;;;;;;3.80;0.85;;;;;;;2.41;100.00;99579.91;4985828;28;20137;-60
2022/02/12 01:02:13;;;;;;;4.47;0.80;;;;;;;2.45;100.00;99587.75;4954619;28;20117;-60
2022/02/12 01:04:58;;;;;;;3.67;0.90;;;;;;;2.41;100.00;99587.75;4975200;28;20066;-59
2022/02/12 01:07:43;;;;;;;3.55;1.20;;;;;;;2.48;100.00;99586.91;4971118;28;20054;-55
2022/02/12 01:10:29;;;;;;;3.42;0.70;;;;;;;2.43;100.00;99591.22;4987942;28;20062;-62
2022/02/12 01:13:15;;;;;;;4.95;0.90;;;;;;;2.41;100.00;99593.84;4957238;28;20203;-54
2022/02/12 01:15:59;;;;;;;3.33;0.90;;;;;;;2.45;100.00;99592.16;4987012;28;20065;-59
2022/02/12 01:18:43;;;;;;;6.13;1.08;;;;;;;2.48;100.00;99592.16;4960165;28;20418;-58
2022/02/12 01:21:28;;;;;;;7.38;1.25;;;;;;;2.41;100.00;99596.44;4969460;28;20100;-59
2022/02/12 01:24:12;;;;;;;4.03;1.30;;;;;;;2.35;100.00;99588.56;4982973;28;20057;-58
2022/02/12 01:26:57;;;;;;;4.40;1.17;;;;;;;2.42;100.00;99582.50;4989077;28;20096;-59
2022/02/12 01:29:42;;;;;;;5.20;1.27;;;;;;;2.53;100.00;99586.09;4968906;28;20113;-61
2022/02/12 01:32:29;;;;;;;3.75;1.17;;;;;;;2.57;100.00;99582.63;4986142;28;20133;-57
2022/02/12 01:35:15;;;;;;;7.88;1.30;;;;;;;2.53;100.00;99585.25;4981032;28;20061;-59
2022/02/12 01:37:59;;;;;;;4.85;1.00;;;;;;;2.43;100.00;99552.88;4979948;28;20057;-55
2022/02/12 01:40:46;;;;;;;4.68;1.15;;;;;;;2.68;100.00;99590.56;4993104;28;20054;-56
2022/02/12 01:43:32;;;;;;;3.92;1.35;;;;;;;2.41;100.00;99556.34;4986942;28;20077;-59
2022/02/12 01:46:17;;;;;;;3.72;1.27;;;;;;;2.66;100.00;99601.06;4983041;28;20049;-59
2022/02/12 01:49:02;;;;;;;3.65;1.10;;;;;;;2.60;100.00;99589.63;4985365;28;20084;-59
2022/02/12 01:51:48;;;;;;;5.05;1.17;;;;;;;2.72;100.00;99595.84;4988112;28;20776;-56
2022/02/12 01:54:32;;;;;;;5.03;1.00;;;;;;;2.69;100.00;99597.59;4978545;28;20498;-56
2022/02/12 01:57:19;;;;;;;2.80;1.13;;;;;;;2.62;100.00;99588.81;4981126;28;20081;-58
2022/02/12 02:00:09;;;;;;;5.25;1.15;;;;;;;2.68;100.00;99594.09;4980277;28;20080;-58
2022/02/12 02:03:00;;;;;;;7.10;1.10;;;;;;;2.59;100.00;99595.75;4972148;28;20094;-57
2022/02/12 02:05:45;;;;;;;4.60;0.98;;;;;;;2.50;100.00;99599.13;4986499;28;20052;-57
2022/02/12 02:08:31;;;;;;;3.38;0.70;;;;;;;2.55;100.00;99591.34;4973713;28;20142;-55
2022/02/12 02:11:17;;;;;;;1.63;0.70;;;;;;;2.25;100.00;99542.25;4973464;28;20116;-55
2022/02/12 02:14:07;;;;;;;2.55;0.80;;;;;;;2.61;100.00;99591.41;4986544;28;20053;-56
2022/02/12 02:16:51;;;;;;;3.97;0.80;;;;;;;2.60;100.00;99600.09;4985190;28;20133;-57
2022/02/12 02:19:37;;;;;;;3.83;0.90;;;;;;;2.62;100.00;99596.66;4973640;28;20070;-58
2022/02/12 02:22:29;;;;;;;3.90;1.35;;;;;;;2.64;100.00;99609.72;4971653;28;20936;-59
2022/02/12 02:25:15;;;;;;;4.93;1.10;;;;;;;2.62;100.00;99604.53;4983352;28;20138;-58
2022/02/12 02:28:00;;;;;;;3.35;1.10;;;;;;;2.72;100.00;99611.56;4964550;28;20626;-56
2022/02/12 02:30:44;;;;;;;5.00;1.10;;;;;;;2.61;100.00;99600.13;4970560;28;20577;-55
2022/02/12 02:33:28;;;;;;;2.67;1.08;;;;;;;2.74;100.00;99615.09;4968953;28;20293;-56
2022/02/12 02:36:14;;;;;;;4.80;0.90;;;;;;;2.72;100.00;99619.41;4965871;28;20597;-59
2022/02/12 02:38:59;;;;;;;5.07;1.13;;;;;;;2.71;100.00;99628.16;4927530;28;20135;-56
2022/02/12 02:41:43;;;;;;;3.75;1.27;;;;;;;2.41;100.00;99583.38;4956409;28;20570;-54
2022/02/12 02:44:28;;;;;;;2.08;0.75;;;;;;;2.65;100.00;99633.31;4973564;28;20493;-55
2022/02/12 02:56:25;;;;;;;5.57;1.33;;;;;;;2.94;100.00;99641.41;4951173;28;20133;-55
2022/02/12 02:59:11;;;;;;;4.95;1.33;;;;;;;2.94;100.00;99639.69;4964831;28;20181;-57
2022/02/12 03:01:56;;;;;;;8.00;1.55;;;;;;;2.86;100.00;99637.88;4967526;28;20053;-57
2022/02/12 03:04:41;;;;;;;5.40;1.80;;;;;;;2.72;100.00;99645.59;4953353;28;20467;-59
2022/02/12 03:07:25;;;;;;;5.97;1.27;;;;;;;2.49;100.00;99620.94;4976593;28;20049;-58
2022/02/12 03:10:10;;;;;;;5.20;1.08;;;;;;;2.55;100.00;99634.09;4971101;28;20058;-59
2022/02/12 03:12:56;;;;;;;3.65;1.38;;;;;;;2.51;100.00;99627.09;4946603;28;20475;-57
2022/02/12 03:15:40;;;;;;;3.35;0.98;;;;;;;2.55;100.00;99630.59;4966068;28;20522;-57
2022/02/12 03:18:27;;;;;;;4.43;1.40;;;;;;;2.60;100.00;99636.75;4953316;28;20742;-59
2022/02/12 03:21:12;;;;;;;3.25;0.82;;;;;;;2.56;100.00;99641.09;4928643;29;20214;-55
2022/02/12 03:23:57;;;;;;;4.30;1.15;;;;;;;2.57;100.00;99645.44;4933833;29;20485;-56
2022/02/12 03:26:41;;;;;;;3.67;1.13;;;;;;;2.55;100.00;99646.28;4967622;28;20076;-55
2022/02/12 03:29:26;;;;;;;5.38;1.20;;;;;;;2.44;100.00;99637.47;4935155;28;20207;-63
2022/02/12 03:32:10;;;;;;;7.82;1.20;;;;;;;2.45;100.00;99644.47;4939955;28;20057;-62
2022/02/12 03:34:55;;;;;;;3.45;1.10;;;;;;;2.45;100.00;99641.84;4948677;28;20049;-62
2022/02/12 03:37:39;;;;;;;5.95;1.00;;;;;;;2.46;100.00;99649.69;4948806;29;20416;-62
2022/02/12 03:40:24;;;;;;;5.18;0.82;;;;;;;2.47;100.00;99637.50;4954100;28;20084;-62
2022/02/12 03:43:09;;;;;;;3.45;1.00;;;;;;;2.65;100.00;99643.78;4981515;28;20048;-65
2022/02/12 03:45:54;;;;;;;6.43;1.20;;;;;;;2.80;100.00;99646.53;4947303;29;20053;-63
2022/02/12 03:48:39;;;;;;;5.72;1.73;;;;;;;2.63;100.00;99642.00;4920462;29;20093;-65
2022/02/12 03:51:23;;;;;;;5.13;1.40;;;;;;;2.34;100.00;99599.88;4948359;29;20125;-61
2022/02/12 03:54:08;;;;;;;5.43;1.50;;;;;;;2.38;100.00;99640.88;4964876;28;20496;-60
2022/02/12 03:56:53;;;;;;;4.10;1.23;;;;;;;2.39;100.00;99641.78;4964215;28;20101;-61
2022/02/12 03:59:38;;;;;;;3.75;1.00;;;;;;;2.22;100.00;99635.50;4971260;28;20053;-62
2022/02/12 04:02:22;;;;;;;3.15;1.10;;;;;;;2.27;100.00;99645.16;4946597;28;20591;-62
2022/02/12 04:05:08;;;;;;;5.50;1.48;;;;;;;2.27;100.00;99650.38;4948632;29;20053;-63
2022/02/12 04:07:52;;;;;;;6.30;1.35;;;;;;;2.31;100.00;99648.66;4935914;28;20106;-65
2022/02/12 04:10:37;;;;;;;4.82;1.23;;;;;;;2.30;100.00;99641.69;4970365;28;20109;-61
2022/02/12 04:13:21;;;;;;;6.28;1.38;;;;;;;2.44;100.00;99661.91;4949717;28;20057;-62
2022/02/12 04:16:06;;;;;;;6.43;1.35;;;;;;;2.58;100.00;99662.03;4956355;28;20058;-61
2022/02/12 04:18:50;;;;;;;5.18;1.50;;;;;;;2.57;100.00;99662.91;4948987;28;20439;-62
2022/02/12 04:21:35;;;;;;;3.42;1.25;;;;;;;2.30;100.00;99650.41;4950083;28;20073;-60
2022/02/12 04:24:20;;;;;;;10.98;3.58;;;;;;;2.37;100.00;99674.91;4948352;28;20109;-62
2022/02/12 04:27:05;;;;;;;7.63;2.15;;;;;;;2.25;100.00;99664.31;4974524;28;20129;-62
2022/02/12 04:29:50;;;;;;;7.22;2.45;;;;;;;2.11;100.00;99627.53;4968942;28;20081;-62
2022/02/12 04:32:35;;;;;;;5.43;1.67;;;;;;;2.36;100.00;99666.16;4958411;28;20054;-62
2022/02/12 04:35:20;;;;;;;4.43;1.75;;;;;;;2.22;100.00;99675.59;4940925;28;20397;-62
2022/02/12 04:38:05;;;;;;;5.45;1.83;;;;;;;2.18;100.00;99679.03;4951981;28;20049;-61
2022/02/12 04:40:49;;;;;;;9.20;1.98;;;;;;;2.21;100.00;99683.44;4933458;28;20084;-62
2022/02/12 04:43:36;;;;;;;5.53;2.20;;;;;;;2.14;100.00;99676.38;4966825;28;21412;-66
2022/02/12 04:46:21;;;;;;;8.80;2.40;;;;;;;2.22;100.00;99677.34;4952022;29;20058;-61
2022/02/12 04:49:06;;;;;;;8.77;2.65;;;;;;;2.12;100.00;99673.75;4951385;29;20070;-61
2022/02/12 04:51:51;;;;;;;6.97;2.58;;;;;;;2.08;100.00;99682.41;4957061;28;20050;-60
2022/02/12 04:54:36;;;;;;;6.80;2.88;;;;;;;2.17;100.00;99681.66;4955462;28;20093;-59
2022/02/12 04:57:21;;;;;;;10.60;3.65;;;;;;;2.25;100.00;99682.63;4936716;29;20407;-60
2022/02/12 05:00:07;;;;;;;14.40;4.95;;;;;;;2.26;100.00;99684.38;4936535;29;20191;-60
2022/02/12 05:02:52;;;;;;;12.27;5.20;;;;;;;2.20;100.00;99685.16;4967593;28;20078;-61
2022/02/12 05:05:36;;;;;;;13.82;5.20;;;;;;;2.21;100.00;99691.28;4966751;28;20217;-62
2022/02/12 05:08:21;;;;;;;15.18;5.00;;;;;;;2.27;100.00;99697.47;4936803;29;20057;-60
2022/02/12 05:11:06;;;;;;;13.05;4.78;;;;;;;2.26;100.00;99690.44;4953021;28;20065;-61
2022/02/12 05:13:52;;;;;;;11.10;4.53;;;;;;;2.32;100.00;99693.16;4981447;28;20058;-61
2022/02/12 05:16:38;;;;;;;12.20;2.67;;;;;;;2.21;100.00;99684.31;4941286;28;20702;-61
2022/02/12 05:19:22;;;;;;;7.45;2.85;;;;;;;2.21;100.00;99697.38;4967795;28;20146;-65
2022/02/12 05:22:07;;;;;;;5.80;2.00;;;;;;;2.24;100.00;99699.16;4970399;28;20065;-62
2022/02/12 05:24:51;;;;;;;7.43;2.00;;;;;;;2.23;100.00;99700.91;4969928;28;20060;-63
2022/02/12 05:27:36;;;;;;;5.13;1.95;;;;;;;2.22;100.00;99695.66;4971107;28;20891;-62
2022/02/12 05:30:21;;;;;;;4.88;1.80;;;;;;;2.31;100.00;99706.22;4990183;28;20045;-63
2022/02/12 05:33:05;;;;;;;9.48;3.38;;;;;;;2.35;100.00;99713.25;4991189;28;20064;-61
2022/02/12 05:35:50;;;;;;;11.25;5.00;;;;;;;2.48;100.00;99713.41;4978493;28;20115;-60
2022/02/12 05:38:41;;;;;;;12.15;3.90;;;;;;;2.48;100.00;99712.50;4988869;28;20105;-62
2022/02/12 05:41:26;;;;;;;12.25;3.50;;;;;;;2.44;100.00;99711.59;4994703;28;20115;-60
2022/02/12 05:44:11;;;;;;;11.95;3.83;;;;;;;2.36;100.00;99710.66;4969826;28;20428;-64
2022/02/12 05:46:55;;;;;;;12.43;4.38;;;;;;;2.39;100.00;99721.16;4988205;28;20066;-61
2022/02/12 05:49:40;;;;;;;16.75;3.85;;;;;;;2.48;100.00;99716.00;4985791;28;20140;-60
2022/02/12 05:52:25;;;;;;;10.65;3.08;;;;;;;2.48;100.00;99721.25;4987757;28;20065;-63
2022/02/12 05:55:09;;;;;;;11.02;3.97;;;;;;;2.64;100.00;99732.75;4968860;28;20853;-60
2022/02/12 05:57:58;;;;;;;10.52;3.42;;;;;;;2.66;100.00;99716.22;4992504;28;20127;-60
2022/02/12 06:00:43;;;;;;;11.07;3.55;;;;;;;2.66;100.00;99729.31;4961233;28;20122;-60
2022/02/12 06:03:28;;;;;;;10.82;3.95;;;;;;;2.62;100.00;99724.00;4986218;28;20061;-62
2022/02/12 06:06:15;;;;;;;8.80;4.00;;;;;;;2.76;100.00;99732.88;4987546;28;20096;-61
2022/02/12 06:08:59;;;;;;;7.57;3.80;;;;;;;2.76;100.00;99728.53;4987003;28;20549;-61
2022/02/12 06:11:44;;;;;;;8.23;3.03;;;;;;;2.54;100.00;99712.59;4987413;28;20124;-59
2022/02/12 06:14:28;;;;;;;5.50;2.08;;;;;;;2.74;100.00;99721.53;4979403;28;20807;-63
2022/02/12 06:17:13;;;;;;;7.32;2.78;;;;;;;2.73;100.00;99727.63;4971871;28;20057;-60
2022/02/12 06:19:57;;;;;;;5.03;2.78;;;;;;;2.66;100.00;99734.53;4970268;28;20129;-61
2022/02/12 06:22:42;;;;;;;10.02;2.53;;;;;;;2.41;100.00;99682.78;4966933;28;20057;-65
2022/02/12 06:25:28;;;;;;;5.03;1.90;;;;;;;2.74;100.00;99727.66;4964042;28;20153;-63
2022/02/12 06:28:13;;;;;;;6.65;1.77;;;;;;;2.76;100.00;99712.81;4971923;28;20054;-62
2022/02/12 06:31:01;;;;;;;5.75;1.70;;;;;;;2.99;100.00;99724.41;4966052;28;20065;-63
2022/02/12 06:33:46;;;;;;;8.30;2.10;;;;;;;2.97;100.00;99720.88;4940591;28;20121;-62
2022/02/12 06:36:31;;;;;;;6.10;2.10;;;;;;;3.22;100.00;99732.44;4968246;28;20057;-65
2022/02/12 06:39:16;;;;;;;6.28;2.05;;;;;;;3.36;100.00;99736.06;4955186;28;20070;-62
2022/02/12 06:42:01;;;;;;;6.32;2.35;;;;;;;3.53;100.00;99740.56;4954081;28;20149;-63
2022/02/12 06:44:46;;;;;;;4.80;1.90;;;;;;;3.50;100.00;99727.44;4952234;28;20050;-64
2022/02/12 06:47:30;;;;;;;6.47;1.90;;;;;;;3.58;100.00;99736.25;4948935;28;20142;-61
2022/02/12 06:50:15;;;;;;;5.32;2.03;;;;;;;3.55;100.00;99738.84;4945394;29;20054;-61
2022/02/12 06:52:59;;;;;;;6.18;2.15;;;;;;;3.37;100.00;99729.97;4948528;28;20185;-63
2022/02/12 06:55:44;;;;;;;5.93;2.55;;;;;;;3.53;100.00;99742.31;4952831;28;20101;-62
2022/02/12 06:58:28;;;;;;;3.90;1.77;;;;;;;3.64;100.00;99738.88;4957300;28;20423;-62
2022/02/12 07:01:13;;;;;;;4.00;1.50;;;;;;;3.61;100.00;99744.09;4959891;28;20138;-64
2022/02/12 07:03:58;;;;;;;6.30;1.40;;;;;;;3.76;100.00;99746.84;4934407;29;20062;-63
2022/02/12 07:06:43;;;;;;;5.95;1.60;;;;;;;4.00;100.00;99744.34;4926285;28;20101;-65
2022/02/12 07:09:27;;;;;;;5.43;2.00;;;;;;;4.30;100.00;99760.28;4945007;28;20647;-63
2022/02/12 07:12:12;;;;;;;4.85;1.98;;;;;;;4.37;100.00;99753.28;4973102;28;20145;-62
2022/02/12 07:14:56;;;;;;;5.60;1.90;;;;;;;4.12;100.00;99728.69;4972749;28;20581;-60
2022/02/12 07:17:41;;;;;;;5.55;1.60;;;;;;;4.21;100.00;99761.97;4973143;28;20471;-60
2022/02/12 07:20:26;;;;;;;5.55;1.58;;;;;;;3.92;100.00;99738.19;4936632;28;20074;-65
2022/02/12 07:23:11;;;;;;;4.80;1.38;;;;;;;3.70;100.00;99719.69;4959489;28;20053;-62
2022/02/12 07:25:55;;;;;;;3.40;1.23;;;;;;;3.88;100.00;99767.03;4969777;28;20118;-64
2022/02/12 07:28:40;;;;;;;3.85;1.38;;;;;;;3.93;100.00;99773.19;4939691;28;20191;-64
2022/02/12 07:31:25;;;;;;;2.58;1.25;;;;;;;3.77;100.00;99768.69;4967566;28;20343;-62
2022/02/12 07:34:15;;;;;;;4.18;1.45;;;;;;;3.71;100.00;99776.50;4948309;28;20058;-62
2022/02/12 07:36:59;;;;;;;3.45;1.27;;;;;;;3.79;100.00;99777.44;4951316;28;20630;-62
2022/02/12 07:39:44;;;;;;;5.05;1.20;;;;;;;3.86;100.00;99779.25;4934154;29;20046;-60
2022/02/12 07:42:28;;;;;;;2.53;1.15;;;;;;;3.97;100.00;99793.31;4940762;29;20131;-61
2022/02/12 07:45:15;;;;;;;2.67;1.08;;;;;;;3.88;100.00;99788.00;4934725;28;20050;-62
2022/02/12 07:47:59;;;;;;;4.38;1.35;;;;;;;3.44;100.00;99753.59;4956074;28;20502;-62
2022/02/12 07:50:44;;;;;;;1.52;0.77;;;;;;;3.35;100.00;99774.50;4954891;28;20053;-60
2022/02/12 07:53:28;;;;;;;4.55;1.23;;;;;;;3.46;100.00;99796.44;4970845;28;20134;-65
2022/02/12 07:56:13;;;;;;;7.18;1.20;;;;;;;2.81;100.00;99733.81;4965790;28;20049;-63
2022/02/12 07:58:58;;;;;;;5.22;1.13;;;;;;;3.34;100.00;99824.25;4962249;28;20159;-63
2022/02/12 08:01:43;;;;;;;3.42;1.05;;;;;;;3.49;100.00;99822.63;4949150;28;20311;-62
2022/02/12 08:04:28;;;;;;;2.92;0.88;;;;;;;3.46;100.00;99811.25;4956870;28;20146;-64
2022/02/12 08:07:31;;;;;;;1.40;0.88;;;;;;;3.32;100.00;99810.28;4960690;28;20062;-62
2022/02/12 08:13:19;;;;;;;2.42;0.80;;;;;;;3.02;100.00;99789.91;4959523;28;20531;-64
2022/02/12 08:16:06;;;;;;;5.07;0.80;;;;;;;3.35;100.00;99786.69;4938321;28;20128;-62
2022/02/12 08:18:50;;;;;;;2.90;0.90;;;;;;;3.53;100.00;99831.44;4958415;28;20134;-62
2022/02/12 08:21:35;;;;;;;3.90;0.70;;;;;;;3.45;100.00;99840.97;4939928;28;20050;-65
2022/02/12 08:24:19;;;;;;;1.83;0.85;;;;;;;3.15;100.00;99830.16;4957595;28;20062;-62
2022/02/12 08:27:05;;;;;;;2.90;0.70;;;;;;;3.23;100.00;99847.75;4964044;28;20521;-62
2022/02/12 08:29:49;;;;;;;1.70;1.10;;;;;;;3.20;100.00;99842.47;4962423;28;20061;-65
2022/02/12 08:32:35;;;;;;;4.07;1.00;;;;;;;3.26;100.00;99808.47;4976469;28;20601;-60
2022/02/12 08:35:20;;;;;;;3.00;1.10;;;;;;;3.54;100.00;99860.28;4979303;28;20464;-57
2022/02/12 08:38:04;;;;;;;2.17;1.00;;;;;;;3.51;100.00;99862.88;4978546;28;20100;-64
2022/02/12 08:40:48;;;;;;;3.35;0.80;;;;;;;3.42;100.00;99854.94;4972651;28;20073;-59
2022/02/12 08:43:33;;;;;;;3.15;1.00;;;;;;;3.09;100.00;99811.78;4978393;28;20482;-58
2022/02/12 08:46:17;;;;;;;3.33;0.90;;;;;;;3.17;100.00;99852.03;4977377;28;20309;-60
2022/02/12 08:49:03;;;;;;;2.25;0.85;;;;;;;3.22;100.00;99873.91;4977452;28;20061;-55
2022/02/12 08:51:48;;;;;;;2.67;0.70;;;;;;;3.03;100.00;99869.34;4967373;28;20185;-59
2022/02/12 08:54:34;;;;;;;5.18;1.20;;;;;;;2.76;100.00;99871.63;4965265;28;20089;-60
2022/02/12 08:57:19;;;;;;;5.75;1.00;;;;;;;2.47;100.00;99881.72;4977046;28;20054;-54
2022/02/12 09:00:06;;;;;;;3.00;0.70;;;;;;;2.21;100.00;99898.78;4974055;28;20065;-55
2022/02/12 09:02:50;;;;;;;1.63;0.60;;;;;;;1.59;100.00;99916.91;4974839;28;20435;-56
2022/02/12 09:05:35;;;;;;;4.95;0.80;;;;;;;1.43;100.00;99918.38;4976119;28;20050;-56
2022/02/12 09:08:19;;;;;;;2.17;0.57;;;;;;;1.57;100.00;99923.81;4976829;28;20102;-59
2022/02/12 09:11:04;;;;;;;1.85;0.80;;;;;;;1.66;100.00;99924.00;4979329;28;20577;-60
2022/02/12 09:13:52;;;;;;;3.13;0.52;;;;;;;1.79;100.00;99921.63;4974305;28;20156;-58
2022/02/12 09:16:38;;;;;;;3.05;0.65;;;;;;;1.88;100.00;99903.47;4980529;28;20081;-59
2022/02/12 09:19:22;;;;;;;1.00;0.75;;;;;;;1.96;100.00;99898.38;4979886;28;20062;-65
2022/02/12 09:22:07;;;;;;;3.33;1.15;;;;;;;1.99;100.00;99916.72;4979944;28;20158;-58
2022/02/12 09:24:51;;;;;;;5.05;1.27;;;;;;;2.05;100.00;99911.63;4981009;28;20149;-58
2022/02/12 09:27:36;;;;;;;3.05;0.75;;;;;;;2.16;100.00;99917.88;4979967;28;20073;-62
2022/02/12 09:30:21;;;;;;;2.15;0.70;;;;;;;2.19;100.00;99917.91;4978117;28;20093;-57
2022/02/12 09:33:08;;;;;;;1.77;0.90;;;;;;;2.27;100.00;99903.22;4976317;28;20201;-55
2022/02/12 09:35:56;;;;;;;2.85;1.00;;;;;;;2.43;100.00;99910.44;4979567;28;20629;-58
2022/02/12 09:38:41;;;;;;;2.85;1.00;;;;;;;2.56;100.00;99914.97;4963369;28;20081;-60
2022/02/12 09:41:27;;;;;;;2.67;0.88;;;;;;;2.88;100.00;99926.75;4981587;28;20176;-62
2022/02/12 09:44:12;;;;;;;1.20;0.70;;;;;;;3.30;100.00;99922.03;4982860;28;20505;-63
2022/02/12 09:47:16;;;;;;;3.45;0.93;;;;;;;3.32;100.00;99920.34;4975210;28;20173;-61
2022/02/12 09:50:07;;;;;;;3.40;1.00;;;;;;;3.33;100.00;99935.19;4980179;28;20112;-62
2022/02/12 09:52:55;;;;;;;3.85;1.10;;;;;;;3.95;100.00;99931.44;4975687;28;20408;-61
2022/02/12 09:55:42;;;;;;;2.47;0.80;;;;;;;3.79;100.00;99906.81;4963883;28;20527;-61
2022/02/12 09:58:29;;;;;;;1.95;0.90;;;;;;;3.74;100.00;99933.88;4982926;28;20057;-58
2022/02/12 10:01:13;;;;;;;2.33;1.13;;;;;;;3.61;100.00;99914.50;4966667;28;20105;-61
2022/02/12 10:04:01;;;;;;;3.75;1.30;;;;;;;3.80;100.00;99949.66;4972552;28;20427;-60
2022/02/12 10:06:47;;;;;;;2.22;1.02;;;;;;;3.25;100.00;99921.13;4981316;28;20061;-61
2022/02/12 10:09:33;;;;;;;4.25;0.95;;;;;;;3.24;100.00;99948.19;4976687;28;20136;-62
2022/02/12 10:12:23;;;;;;;2.42;1.20;;;;;;;3.07;100.00;99949.69;4982811;28;20061;-60
2022/02/12 10:15:32;;;;;;;2.15;0.82;;;;;;;3.18;100.00;99953.34;4976991;28;20073;-60
2022/02/12 10:18:22;;;;;;;3.83;0.98;;;;;;;3.14;100.00;99944.56;4977730;28;20545;-63
2022/02/12 10:21:09;;;;;;;3.10;1.08;;;;;;;3.28;100.00;99944.75;4982088;28;20541;-60
2022/02/12 10:23:54;;;;;;;6.07;1.05;;;;;;;3.45;100.00;99941.41;4980989;28;20109;-60
2022/02/12 10:27:02;;;;;;;2.85;1.10;;;;;;;3.60;100.00;99943.34;4978396;28;20426;-59
2022/02/12 10:29:47;;;;;;;2.83;1.30;;;;;;;3.65;100.00;99947.75;4976519;28;20105;-63
2022/02/12 10:32:33;;;;;;;4.63;1.50;;;;;;;3.75;100.00;99956.59;4979265;28;20065;-61
2022/02/12 10:35:18;;;;;;;5.38;1.77;;;;;;;4.12;100.00;99953.47;4980944;28;20838;-62
2022/02/12 10:38:12;;;;;;;3.13;1.80;;;;;;;6.53;100.00;99952.66;4979995;28;20062;-61
2022/02/12 10:41:13;;;;;;;3.55;1.90;;;;;;;7.19;100.00;99957.75;4962496;28;20107;-64
2022/02/12 10:44:00;;;;;;;2.05;1.10;;;;;;;6.48;100.00;99950.00;4975328;28;20108;-60
2022/02/12 10:46:46;;;;;;;5.70;1.00;;;;;;;5.72;100.00;99945.53;4958371;28;20058;-61
2022/02/12 10:49:35;;;;;;;1.67;0.90;;;;;;;5.21;100.00;99953.28;4983170;28;20049;-60
2022/02/12 10:52:22;;;;;;;3.10;1.08;;;;;;;4.95;100.00;99953.16;4977850;28;20120;-57
2022/02/12 10:55:21;;;;;;;5.57;1.20;;;;;;;4.59;100.00;99936.31;4966070;28;20050;-59
2022/02/12 10:58:16;;;;;;;2.95;0.70;;;;;;;4.66;100.00;99941.59;4992561;28;20048;-56
2022/02/12 11:01:03;;;;;;;2.00;0.75;;;;;;;4.45;100.00;99937.97;4976268;28;20105;-59
2022/02/12 11:03:51;;;;;;;2.17;0.90;;;;;;;4.85;100.00;99948.72;4975059;28;20482;-62
2022/02/12 11:06:37;;;;;;;4.18;1.20;;;;;;;4.95;100.00;99955.78;4978228;28;20136;-66
2022/02/12 11:09:23;;;;;;;2.75;0.77;;;;;;;5.09;100.00;99953.22;4976398;28;20086;-57
2022/02/12 11:12:09;;;;;;;3.13;1.10;;;;;;;4.98;100.00;99961.06;4984456;28;20065;-64
2022/02/12 11:14:56;;;;;;;1.75;0.80;;;;;;;6.02;95.84;99936.84;4976015;28;20076;-66
2022/02/12 11:17:42;;;;;;;3.20;0.95;;;;;;;7.22;88.32;99958.63;4978956;28;20053;-59
2022/02/12 11:20:28;;;;;;;2.85;1.00;;;;;;;7.62;80.88;99956.69;4975887;28;20801;-58
2022/02/12 11:23:24;;;;;;;2.38;0.80;;;;;;;8.12;79.73;99971.31;4978258;28;20053;-59
2022/02/12 11:26:20;;;;;;;4.13;0.90;;;;;;;7.66;77.76;99963.69;4968392;28;20062;-62
2022/02/12 11:29:28;;;;;;;5.25;1.25;;;;;;;8.42;76.66;99980.81;4932119;28;20077;-55
2022/02/12 11:32:16;;;;;;;2.80;0.93;;;;;;;7.39;77.12;99975.25;4945210;28;20053;-61
2022/02/12 11:35:09;;;;;;;3.45;0.75;;;;;;;6.61;79.36;99979.84;4933691;28;20082;-56
2022/02/12 11:37:54;;;;;;;1.95;0.85;;;;;;;5.86;81.30;99977.19;4943520;28;20537;-56
2022/02/12 11:40:40;;;;;;;1.45;0.73;;;;;;;7.58;78.40;99981.31;4943816;28;20133;-58
2022/02/12 11:43:35;;;;;;;;;;;;;;;8.39;76.30;99960.56;4960438;28;20586;-66
2022/02/12 11:46:51;;;;;;;3.03;1.15;;;;;;;8.53;68.06;99984.25;4959539;28;20104;-55
2022/02/12 11:49:43;;;;;;;1.92;1.00;;;;;;;7.19;66.96;99986.75;4955149;28;20050;-56
2022/02/12 11:52:43;;;;;;;2.17;0.85;;;;;;;6.47;73.64;99994.78;4957314;28;20053;-59
2022/02/12 11:55:36;;;;;;;2.30;0.95;;;;;;;6.49;72.55;99985.13;4956337;28;20050;-58
2022/02/12 11:58:42;;;;;;;3.67;1.00;;;;;;;7.39;72.73;99985.81;4959775;28;20094;-63
2022/02/12 12:01:35;;;;;;;2.28;1.10;;;;;;;7.13;71.04;99990.31;4940069;28;20062;-58
2022/02/12 12:04:22;;;;;;;2.55;1.15;;;;;;;6.83;71.80;99986.84;4945478;28;20117;-57
2022/02/12 12:07:14;;;;;;;2.33;1.30;;;;;;;6.49;71.71;99980.72;4953888;28;20479;-57
2022/02/12 12:10:05;;;;;;;5.03;1.17;;;;;;;5.82;74.61;99992.09;4937244;28;20075;-63
2022/02/12 12:12:49;;;;;;;2.08;1.05;;;;;;;5.39;76.99;99953.34;4948278;28;20133;-55
2022/02/12 12:15:35;;;;;;;2.60;1.20;;;;;;;5.53;77.59;99950.78;4949954;28;20554;-61
2022/02/12 12:18:25;;;;;;;2.97;1.10;;;;;;;6.62;76.06;99989.50;4945368;28;20150;-58
2022/02/12 12:21:14;;;;;;;3.33;0.98;;;;;;;7.00;74.16;99967.47;4945081;28;20222;-58
2022/02/12 12:24:00;;;;;;;5.22;0.70;;;;;;;7.02;73.45;99993.84;4953207;28;20126;-62
2022/02/12 12:26:47;;;;;;;1.67;0.70;;;;;;;7.22;73.59;99994.66;4952050;28;20070;-56
2022/02/12 12:32:35;;;;;;;1.67;0.80;;;;;;;6.86;76.77;99969.28;4950586;28;20062;-62
2022/02/12 12:35:22;;;;;;;2.53;0.68;;;;;;;6.30;78.04;99996.53;4955974;28;20076;-56
2022/02/12 12:38:10;;;;;;;2.05;0.80;;;;;;;6.05;82.35;100007.94;4955962;28;20102;-58
2022/02/12 12:40:55;;;;;;;3.17;0.70;;;;;;;6.32;83.60;100018.47;4954371;28;20049;-57
2022/02/12 12:43:40;;;;;;;2.63;0.70;;;;;;;6.51;79.44;100001.81;4961105;28;20101;-57
2022/02/12 12:46:25;;;;;;;2.00;0.73;;;;;;;6.47;77.13;99981.59;4944982;28;20085;-60
2022/02/12 12:49:23;;;;;;;1.17;0.50;;;;;;;6.36;74.39;100023.75;4960051;28;20078;-56
2022/02/12 12:52:12;;;;;;;3.38;0.70;;;;;;;6.04;74.92;100029.84;4960360;28;20061;-55
2022/02/12 12:55:18;;;;;;;1.63;0.73;;;;;;;5.96;77.91;100036.84;4961065;28;20260;-59
2022/02/12 12:58:14;;;;;;;2.15;0.70;;;;;;;5.33;77.75;100040.06;4932376;28;20116;-56
2022/02/12 13:01:07;;;;;;;2.50;0.90;;;;;;;5.26;80.59;100045.31;4958652;28;20137;-58
2022/02/12 13:03:55;;;;;;;2.78;0.88;;;;;;;5.00;81.28;100018.88;4962853;28;20074;-60
2022/02/12 13:06:50;;;;;;;1.63;0.75;;;;;;;4.78;80.21;99925.91;4945754;28;20058;-58
2022/02/12 13:09:35;;;;;;;;;;;;;;;5.85;81.42;100054.38;4962025;28;20082;-53
2022/02/12 13:12:37;;;;;;;5.38;1.17;;;;;;;5.99;80.03;100063.16;4957479;28;20325;-57
2022/02/12 13:15:34;;;;;;;3.55;1.10;;;;;;;6.11;79.95;100060.56;4944368;28;20101;-62
2022/02/12 13:18:19;;;;;;;2.80;0.90;;;;;;;5.71;79.03;100056.91;4943117;28;20574;-60
2022/02/12 13:21:14;;;;;;;2.65;1.05;;;;;;;5.38;80.10;100050.63;4946243;28;20580;-56